X  Sluiten METAR luchtvaart weer gegevens      EBBR Brussels Airport
Temperatuur
8°C Temperatuur
-2°C Dauwpunt
50% Vochtigheid



Wind
11 KM/U
7 MPH
3 M/S
6 KTS



40°
NO
Huidig weer

Area Buien Area Buien
Luchtdruk 1029.92 (hPa) - 30.41 (inHg)
Zicht 6.2 (mijl) - 10 (km)
Vliegveld
Vliegveld code EBBR

Locatie : Brussels Airport
Afstand: 14 (km)

Metar:
EBBR 141250Z 04006KT 9999 VCSH SCT049 08/M02 Q1030 NOSIG

Tijd: 04-14-2021 14:50 CEST